Aviation Digital Data Service (ADDS)

Output produced by TAFs form (0011 UTC 28 August 2015)
found at http://aviationweather.gov/adds/tafs/
 
KSAF 272323Z 2800/2824 33007KT P6SM VCSH BKN070 
     FM280400 36008KT P6SM FEW070 
     FM282000 13008KT P6SM VCSH SCT070